Mitsukawa Maru — JD2495 — position and weather

sailwx.info

Track history (hours):
 
Tides and Currents Weather Stations Pressure Air Temp Water Temp Dewpoint Dewpoint Depression Visibility Wind Speed Wind Dir Waves Ship Positions

Mitsukawa Maru

Last reported at 2016-Jul-21 16:33 UTC. Time now 2016-Jul-26 08:20 UTC.
Position N 35°08' E 139°43'.

Length 105 m; draft 4.5 m.

Type: Cargo ship. MMSI: 431000326.

Date/timePositionNaut miles runAvg speedWind from/ knotsBaromVisibWave heightAir tempDewpointWater temp
2016-Jul-21 16:33N 35°08' E 139°43'1211.7
2016-Jul-21 15:34N 35°20' E 139°43'1212.4
2016-Jul-21 14:33N 35°30' E 139°52'1313.0
2016-Jul-21 13:33N 35°35' E 140°06'1 0.7
2016-Jul-21 12:10N 35°34' E 140°07'0 0.0
2016-Jul-21 11:19N 35°34' E 140°07'0 0.0
2016-Jul-21 10:28N 35°34' E 140°07'0 0.0
2016-Jul-21 09:28N 35°34' E 140°07'0 0.0
2016-Jul-21 08:28N 35°34' E 140°07'0 0.0
2016-Jul-21 07:25N 35°34' E 140°07'0 0.0
2016-Jul-21 06:28N 35°34' E 140°07'0 0.0
2016-Jul-21 05:31N 35°34' E 140°07'0 0.0
2016-Jul-21 04:22N 35°34' E 140°07'0 0.0
2016-Jul-21 03:28N 35°34' E 140°07'0 0.0
2016-Jul-21 02:31N 35°34' E 140°07'0 0.0
2016-Jul-21 01:25N 35°34' E 140°07'0 0.0
2016-Jul-21 00:28N 35°34' E 140°07'0 0.0
2016-Jul-20 23:31N 35°34' E 140°07'1 1.4
2016-Jul-20 22:33N 35°35' E 140°06'5 4.7
2016-Jul-20 21:32N 35°33' E 140°01'0 0.0
2016-Jul-20 20:33N 35°33' E 140°01'9 9.2
2016-Jul-20 19:33N 35°28' E 139°51'1111.5
2016-Jul-20 18:33N 35°18' E 139°45'1211.7
2016-Jul-20 17:33N 35°06' E 139°45'  
2016-Jul-17 13:17N 35°03' E 139°34'1013.8
2016-Jul-17 12:34N 35°09' E 139°43'1211.5
2016-Jul-17 11:33N 35°21' E 139°42'1211.7
2016-Jul-17 10:33N 35°30' E 139°52'1312.7
2016-Jul-17 09:33N 35°35' E 140°06'1 1.1
2016-Jul-17 08:33N 35°35' E 140°07'0 0.0
2016-Jul-17 07:33N 35°35' E 140°07'0 0.0
2016-Jul-17 06:33N 35°35' E 140°07'0 0.0
2016-Jul-17 04:33N 35°35' E 140°07'0 0.0
2016-Jul-17 03:21N 35°35' E 140°07'0 0.0
2016-Jul-17 02:33N 35°35' E 140°07'0 0.0
2016-Jul-17 01:30N 35°35' E 140°07'0 0.0
2016-Jul-17 00:33N 35°35' E 140°07'0 0.0
2016-Jul-16 23:33N 35°35' E 140°07'0 0.2
2016-Jul-16 22:33N 35°35' E 140°07'6 5.9
2016-Jul-16 21:34N 35°34' E 139°59'0 0.2
2016-Jul-16 20:32N 35°34' E 139°59'0 0.1
2016-Jul-16 19:32N 35°34' E 139°59'0 0.0
2016-Jul-16 18:32N 35°34' E 139°59'0 0.0
2016-Jul-16 17:32N 35°34' E 139°59'0 0.0
2016-Jul-16 16:32N 35°34' E 139°59'0 0.0
2016-Jul-16 15:26N 35°34' E 139°59'0 0.1
2016-Jul-16 14:33N 35°34' E 139°59'10 9.7
2016-Jul-16 13:33N 35°28' E 139°50'1111.3
2016-Jul-16 12:33N 35°17' E 139°45'1110.7
2016-Jul-16 11:33N 35°07' E 139°45'1812.2
2016-Jul-16 10:06N 34°55' E 139°28'232 5.2
2016-Jul-14 13:19N 34°03' E 134°55'1113.8
2016-Jul-14 12:33N 34°13' E 134°58'1414.1
2016-Jul-14 11:33N 34°27' E 135°01'10 9.8
2016-Jul-14 10:32N 34°37' E 134°58'  
Track history (hours):
 
Tides and Currents Weather Stations Pressure Air Temp Water Temp Dewpoint Dewpoint Depression Visibility Wind Speed Wind Dir Waves Ship Positions

Mitsukawa Maru

Last reported at 2016-Jul-21 16:33 UTC. Time now 2016-Jul-26 08:20 UTC.
Position N 35°08' E 139°43'.

Length 105 m; draft 4.5 m.

Type: Cargo ship. MMSI: 431000326.

Date/timePositionNaut miles runAvg speedWind from/ knotsBaromVisibWave heightAir tempDewpointWater temp
2016-Jul-21 16:33N 35°08' E 139°43'1211.7
2016-Jul-21 15:34N 35°20' E 139°43'1212.4
2016-Jul-21 14:33N 35°30' E 139°52'1313.0
2016-Jul-21 13:33N 35°35' E 140°06'1 0.7
2016-Jul-21 12:10N 35°34' E 140°07'0 0.0
2016-Jul-21 11:19N 35°34' E 140°07'0 0.0
2016-Jul-21 10:28N 35°34' E 140°07'0 0.0
2016-Jul-21 09:28N 35°34' E 140°07'0 0.0
2016-Jul-21 08:28N 35°34' E 140°07'0 0.0
2016-Jul-21 07:25N 35°34' E 140°07'0 0.0
2016-Jul-21 06:28N 35°34' E 140°07'0 0.0
2016-Jul-21 05:31N 35°34' E 140°07'0 0.0
2016-Jul-21 04:22N 35°34' E 140°07'0 0.0
2016-Jul-21 03:28N 35°34' E 140°07'0 0.0
2016-Jul-21 02:31N 35°34' E 140°07'0 0.0
2016-Jul-21 01:25N 35°34' E 140°07'0 0.0
2016-Jul-21 00:28N 35°34' E 140°07'0 0.0
2016-Jul-20 23:31N 35°34' E 140°07'1 1.4
2016-Jul-20 22:33N 35°35' E 140°06'5 4.7
2016-Jul-20 21:32N 35°33' E 140°01'0 0.0
2016-Jul-20 20:33N 35°33' E 140°01'9 9.2
2016-Jul-20 19:33N 35°28' E 139°51'1111.5
2016-Jul-20 18:33N 35°18' E 139°45'1211.7
2016-Jul-20 17:33N 35°06' E 139°45'  
2016-Jul-17 13:17N 35°03' E 139°34'1013.8
2016-Jul-17 12:34N 35°09' E 139°43'1211.5
2016-Jul-17 11:33N 35°21' E 139°42'1211.7
2016-Jul-17 10:33N 35°30' E 139°52'1312.7
2016-Jul-17 09:33N 35°35' E 140°06'1 1.1
2016-Jul-17 08:33N 35°35' E 140°07'0 0.0
2016-Jul-17 07:33N 35°35' E 140°07'0 0.0
2016-Jul-17 06:33N 35°35' E 140°07'0 0.0
2016-Jul-17 04:33N 35°35' E 140°07'0 0.0
2016-Jul-17 03:21N 35°35' E 140°07'0 0.0
2016-Jul-17 02:33N 35°35' E 140°07'0 0.0
2016-Jul-17 01:30N 35°35' E 140°07'0 0.0
2016-Jul-17 00:33N 35°35' E 140°07'0 0.0
2016-Jul-16 23:33N 35°35' E 140°07'0 0.2
2016-Jul-16 22:33N 35°35' E 140°07'6 5.9
2016-Jul-16 21:34N 35°34' E 139°59'0 0.2
2016-Jul-16 20:32N 35°34' E 139°59'0 0.1
2016-Jul-16 19:32N 35°34' E 139°59'0 0.0
2016-Jul-16 18:32N 35°34' E 139°59'0 0.0
2016-Jul-16 17:32N 35°34' E 139°59'0 0.0
2016-Jul-16 16:32N 35°34' E 139°59'0 0.0
2016-Jul-16 15:26N 35°34' E 139°59'0 0.1
2016-Jul-16 14:33N 35°34' E 139°59'10 9.7
2016-Jul-16 13:33N 35°28' E 139°50'1111.3
2016-Jul-16 12:33N 35°17' E 139°45'1110.7
2016-Jul-16 11:33N 35°07' E 139°45'1812.2
2016-Jul-16 10:06N 34°55' E 139°28'232 5.2
2016-Jul-14 13:19N 34°03' E 134°55'1113.8
2016-Jul-14 12:33N 34°13' E 134°58'1414.1
2016-Jul-14 11:33N 34°27' E 135°01'10 9.8
2016-Jul-14 10:32N 34°37' E 134°58'  

Dump ship's entire track history